sensor_id;sensor_type;location;lat;lon;timestamp;temperature;humidity
48007;DHT22;33771;48.180;11.400;2022-09-12T00:01:52;11.20;99.90
48007;DHT22;33771;48.180;11.400;2022-09-12T00:04:18;11.20;99.90
48007;DHT22;33771;48.180;11.400;2022-09-12T00:06:43;11.20;99.90
48007;DHT22;33771;48.180;11.400;2022-09-12T00:09:11;11.20;99.90
48007;DHT22;33771;48.180;11.400;2022-09-12T00:11:39;11.10;99.90
48007;DHT22;33771;48.180;11.400;2022-09-12T00:14:07;11.10;99.90
48007;DHT22;33771;48.180;11.400;2022-09-12T00:16:35;11.10;99.90
48007;DHT22;33771;48.180;11.400;2022-09-12T00:19:01;11.10;99.90
48007;DHT22;33771;48.180;11.400;2022-09-12T00:21:27;11.00;99.90
48007;DHT22;33771;48.180;11.400;2022-09-12T00:23:53;11.00;99.90
48007;DHT22;33771;48.180;11.400;2022-09-12T00:26:19;11.00;99.90
48007;DHT22;33771;48.180;11.400;2022-09-12T00:28:46;11.00;99.90
48007;DHT22;33771;48.180;11.400;2022-09-12T00:31:16;11.00;99.90
48007;DHT22;33771;48.180;11.400;2022-09-12T00:33:42;11.00;99.90
48007;DHT22;33771;48.180;11.400;2022-09-12T00:36:13;11.00;99.90
48007;DHT22;33771;48.180;11.400;2022-09-12T00:38:40;11.00;99.90
48007;DHT22;33771;48.180;11.400;2022-09-12T00:41:09;11.00;99.90
48007;DHT22;33771;48.180;11.400;2022-09-12T00:43:38;11.00;99.90
48007;DHT22;33771;48.180;11.400;2022-09-12T00:46:15;11.00;99.90
48007;DHT22;33771;48.180;11.400;2022-09-12T00:48:49;10.90;99.90
48007;DHT22;33771;48.180;11.400;2022-09-12T00:51:17;10.90;99.90
48007;DHT22;33771;48.180;11.400;2022-09-12T00:53:43;10.90;99.90
48007;DHT22;33771;48.180;11.400;2022-09-12T00:56:12;10.80;99.90
48007;DHT22;33771;48.180;11.400;2022-09-12T00:58:46;10.80;99.90
48007;DHT22;33771;48.180;11.400;2022-09-12T01:01:14;10.70;99.90
48007;DHT22;33771;48.180;11.400;2022-09-12T01:03:39;10.70;99.90
48007;DHT22;33771;48.180;11.400;2022-09-12T01:06:16;10.70;99.90
48007;DHT22;33771;48.180;11.400;2022-09-12T01:08:43;10.60;99.90
48007;DHT22;33771;48.180;11.400;2022-09-12T01:11:11;10.60;99.90
48007;DHT22;33771;48.180;11.400;2022-09-12T01:13:37;10.60;99.90
48007;DHT22;33771;48.180;11.400;2022-09-12T01:16:04;10.70;99.90
48007;DHT22;33771;48.180;11.400;2022-09-12T01:24:33;10.50;99.90
48007;DHT22;33771;48.180;11.400;2022-09-12T01:27:26;10.50;99.90
48007;DHT22;33771;48.180;11.400;2022-09-12T01:30:04;10.50;99.90
48007;DHT22;33771;48.180;11.400;2022-09-12T01:35:44;10.40;99.90
48007;DHT22;33771;48.180;11.400;2022-09-12T01:43:50;10.40;99.90
48007;DHT22;33771;48.180;11.400;2022-09-12T01:46:27;10.40;99.90
48007;DHT22;33771;48.180;11.400;2022-09-12T01:49:13;10.30;99.90
48007;DHT22;33771;48.180;11.400;2022-09-12T01:51:46;10.30;99.90
48007;DHT22;33771;48.180;11.400;2022-09-12T01:54:19;10.30;99.90
48007;DHT22;33771;48.180;11.400;2022-09-12T01:56:51;10.20;99.90
48007;DHT22;33771;48.180;11.400;2022-09-12T01:59:29;10.20;99.90
48007;DHT22;33771;48.180;11.400;2022-09-12T02:02:16;10.20;99.90
48007;DHT22;33771;48.180;11.400;2022-09-12T02:04:57;10.20;99.90
48007;DHT22;33771;48.180;11.400;2022-09-12T02:07:41;10.20;99.90
48007;DHT22;33771;48.180;11.400;2022-09-12T02:10:23;10.10;99.90
48007;DHT22;33771;48.180;11.400;2022-09-12T02:12:57;10.10;99.90
48007;DHT22;33771;48.180;11.400;2022-09-12T02:15:31;10.10;99.90
48007;DHT22;33771;48.180;11.400;2022-09-12T02:18:00;10.10;99.90
48007;DHT22;33771;48.180;11.400;2022-09-12T02:20:31;10.10;99.90
48007;DHT22;33771;48.180;11.400;2022-09-12T02:23:00;10.10;99.90
48007;DHT22;33771;48.180;11.400;2022-09-12T02:25:28;10.10;99.90
48007;DHT22;33771;48.180;11.400;2022-09-12T02:28:24;10.00;99.90
48007;DHT22;33771;48.180;11.400;2022-09-12T02:33:47;10.00;99.90
48007;DHT22;33771;48.180;11.400;2022-09-12T02:39:18;10.00;99.90
48007;DHT22;33771;48.180;11.400;2022-09-12T02:41:55;9.90;99.90
48007;DHT22;33771;48.180;11.400;2022-09-12T02:44:23;9.90;99.90
48007;DHT22;33771;48.180;11.400;2022-09-12T02:46:53;9.90;99.90
48007;DHT22;33771;48.180;11.400;2022-09-12T02:49:20;9.90;99.90
48007;DHT22;33771;48.180;11.400;2022-09-12T02:51:47;9.90;99.90
48007;DHT22;33771;48.180;11.400;2022-09-12T02:54:14;9.90;99.90
48007;DHT22;33771;48.180;11.400;2022-09-12T02:56:42;9.80;99.90
48007;DHT22;33771;48.180;11.400;2022-09-12T02:59:10;9.80;99.90
48007;DHT22;33771;48.180;11.400;2022-09-12T03:01:44;9.80;99.90
48007;DHT22;33771;48.180;11.400;2022-09-12T03:15:08;9.80;99.90
48007;DHT22;33771;48.180;11.400;2022-09-12T03:23:08;9.70;99.90
48007;DHT22;33771;48.180;11.400;2022-09-12T03:25:39;9.70;99.90
48007;DHT22;33771;48.180;11.400;2022-09-12T03:28:16;9.70;99.90
48007;DHT22;33771;48.180;11.400;2022-09-12T03:30:46;9.70;99.90
48007;DHT22;33771;48.180;11.400;2022-09-12T03:33:17;9.70;99.90
48007;DHT22;33771;48.180;11.400;2022-09-12T03:35:44;9.70;99.90
48007;DHT22;33771;48.180;11.400;2022-09-12T03:38:09;9.70;99.90
48007;DHT22;33771;48.180;11.400;2022-09-12T03:40:36;9.70;99.90
48007;DHT22;33771;48.180;11.400;2022-09-12T03:43:02;9.70;99.90
48007;DHT22;33771;48.180;11.400;2022-09-12T03:45:28;9.60;99.90
48007;DHT22;33771;48.180;11.400;2022-09-12T03:47:54;9.60;99.90
48007;DHT22;33771;48.180;11.400;2022-09-12T03:50:19;9.60;99.90
48007;DHT22;33771;48.180;11.400;2022-09-12T03:52:45;9.60;99.90
48007;DHT22;33771;48.180;11.400;2022-09-12T03:55:11;9.50;99.90
48007;DHT22;33771;48.180;11.400;2022-09-12T03:57:37;9.50;99.90
48007;DHT22;33771;48.180;11.400;2022-09-12T04:00:04;9.50;99.90
48007;DHT22;33771;48.180;11.400;2022-09-12T04:02:30;9.50;99.90
48007;DHT22;33771;48.180;11.400;2022-09-12T04:04:55;9.50;99.90
48007;DHT22;33771;48.180;11.400;2022-09-12T04:07:21;9.40;99.90
48007;DHT22;33771;48.180;11.400;2022-09-12T04:09:46;9.40;99.90
48007;DHT22;33771;48.180;11.400;2022-09-12T04:12:12;9.40;99.90
48007;DHT22;33771;48.180;11.400;2022-09-12T04:14:38;9.40;99.90
48007;DHT22;33771;48.180;11.400;2022-09-12T04:17:04;9.40;99.90
48007;DHT22;33771;48.180;11.400;2022-09-12T04:19:29;9.40;99.90
48007;DHT22;33771;48.180;11.400;2022-09-12T04:21:55;9.30;99.90
48007;DHT22;33771;48.180;11.400;2022-09-12T04:24:21;9.30;99.90
48007;DHT22;33771;48.180;11.400;2022-09-12T04:26:46;9.30;99.90
48007;DHT22;33771;48.180;11.400;2022-09-12T04:29:12;9.30;99.90
48007;DHT22;33771;48.180;11.400;2022-09-12T04:31:39;9.30;99.90
48007;DHT22;33771;48.180;11.400;2022-09-12T04:34:05;9.20;99.90
48007;DHT22;33771;48.180;11.400;2022-09-12T04:36:32;9.20;99.90
48007;DHT22;33771;48.180;11.400;2022-09-12T04:38:59;9.20;99.90
48007;DHT22;33771;48.180;11.400;2022-09-12T04:41:28;9.20;99.90
48007;DHT22;33771;48.180;11.400;2022-09-12T04:43:59;9.20;99.90
48007;DHT22;33771;48.180;11.400;2022-09-12T04:46:30;9.20;99.90
48007;DHT22;33771;48.180;11.400;2022-09-12T04:48:56;9.20;99.90
48007;DHT22;33771;48.180;11.400;2022-09-12T04:51:24;9.10;99.90
48007;DHT22;33771;48.180;11.400;2022-09-12T04:53:53;9.10;99.90
48007;DHT22;33771;48.180;11.400;2022-09-12T04:56:20;9.10;99.90
48007;DHT22;33771;48.180;11.400;2022-09-12T04:58:46;9.00;99.90
48007;DHT22;33771;48.180;11.400;2022-09-12T05:01:14;9.00;99.90
48007;DHT22;33771;48.180;11.400;2022-09-12T05:03:41;9.00;99.90
48007;DHT22;33771;48.180;11.400;2022-09-12T05:06:13;9.00;99.90
48007;DHT22;33771;48.180;11.400;2022-09-12T05:08:39;9.00;99.90
48007;DHT22;33771;48.180;11.400;2022-09-12T05:11:08;9.00;99.90
48007;DHT22;33771;48.180;11.400;2022-09-12T05:13:34;9.00;99.90
48007;DHT22;33771;48.180;11.400;2022-09-12T05:16:02;9.00;99.90
48007;DHT22;33771;48.180;11.400;2022-09-12T05:18:30;9.00;99.90
48007;DHT22;33771;48.180;11.400;2022-09-12T05:20:58;9.10;99.90
48007;DHT22;33771;48.180;11.400;2022-09-12T05:23:23;9.10;99.90
48007;DHT22;33771;48.180;11.400;2022-09-12T05:25:50;9.10;99.90
48007;DHT22;33771;48.180;11.400;2022-09-12T05:28:17;9.10;99.90
48007;DHT22;33771;48.180;11.400;2022-09-12T05:30:43;9.10;99.90
48007;DHT22;33771;48.180;11.400;2022-09-12T05:33:08;9.10;99.90
48007;DHT22;33771;48.180;11.400;2022-09-12T05:35:34;9.20;99.90
48007;DHT22;33771;48.180;11.400;2022-09-12T05:37:59;9.20;99.90
48007;DHT22;33771;48.180;11.400;2022-09-12T05:40:25;9.20;99.90
48007;DHT22;33771;48.180;11.400;2022-09-12T05:42:50;9.30;99.90
48007;DHT22;33771;48.180;11.400;2022-09-12T05:45:16;9.40;99.90
48007;DHT22;33771;48.180;11.400;2022-09-12T05:47:41;9.40;99.90
48007;DHT22;33771;48.180;11.400;2022-09-12T05:50:08;9.50;99.90
48007;DHT22;33771;48.180;11.400;2022-09-12T05:52:36;9.60;99.90
48007;DHT22;33771;48.180;11.400;2022-09-12T05:55:02;9.60;99.90
48007;DHT22;33771;48.180;11.400;2022-09-12T05:57:27;9.70;99.90
48007;DHT22;33771;48.180;11.400;2022-09-12T05:59:53;9.80;99.90
48007;DHT22;33771;48.180;11.400;2022-09-12T06:02:19;9.90;99.90
48007;DHT22;33771;48.180;11.400;2022-09-12T06:04:45;9.90;99.90
48007;DHT22;33771;48.180;11.400;2022-09-12T06:07:11;10.00;99.90
48007;DHT22;33771;48.180;11.400;2022-09-12T06:09:36;10.00;99.90
48007;DHT22;33771;48.180;11.400;2022-09-12T06:12:02;10.10;99.90
48007;DHT22;33771;48.180;11.400;2022-09-12T06:14:28;10.20;99.90
48007;DHT22;33771;48.180;11.400;2022-09-12T06:16:53;10.30;99.90
48007;DHT22;33771;48.180;11.400;2022-09-12T06:19:20;10.40;99.90
48007;DHT22;33771;48.180;11.400;2022-09-12T06:21:48;10.50;99.90
48007;DHT22;33771;48.180;11.400;2022-09-12T06:24:18;10.60;99.90
48007;DHT22;33771;48.180;11.400;2022-09-12T06:26:44;10.60;99.90
48007;DHT22;33771;48.180;11.400;2022-09-12T06:29:10;10.70;99.90
48007;DHT22;33771;48.180;11.400;2022-09-12T06:31:37;10.80;99.90
48007;DHT22;33771;48.180;11.400;2022-09-12T06:34:06;10.90;99.90
48007;DHT22;33771;48.180;11.400;2022-09-12T06:36:36;11.00;99.90
48007;DHT22;33771;48.180;11.400;2022-09-12T06:39:05;11.10;99.90
48007;DHT22;33771;48.180;11.400;2022-09-12T06:41:32;11.20;99.90
48007;DHT22;33771;48.180;11.400;2022-09-12T06:43:58;11.30;99.90
48007;DHT22;33771;48.180;11.400;2022-09-12T06:46:25;11.30;99.90
48007;DHT22;33771;48.180;11.400;2022-09-12T06:48:51;11.40;99.90
48007;DHT22;33771;48.180;11.400;2022-09-12T06:51:19;11.50;99.90
48007;DHT22;33771;48.180;11.400;2022-09-12T06:53:45;11.60;99.90
48007;DHT22;33771;48.180;11.400;2022-09-12T06:56:14;11.70;99.90
48007;DHT22;33771;48.180;11.400;2022-09-12T06:58:40;11.80;99.90
48007;DHT22;33771;48.180;11.400;2022-09-12T07:01:16;11.90;99.90
48007;DHT22;33771;48.180;11.400;2022-09-12T07:03:47;11.90;99.90
48007;DHT22;33771;48.180;11.400;2022-09-12T07:06:19;12.10;99.90
48007;DHT22;33771;48.180;11.400;2022-09-12T07:08:45;12.20;99.90
48007;DHT22;33771;48.180;11.400;2022-09-12T07:11:17;12.30;99.90
48007;DHT22;33771;48.180;11.400;2022-09-12T07:13:46;12.40;99.90
48007;DHT22;33771;48.180;11.400;2022-09-12T07:16:12;12.50;99.90
48007;DHT22;33771;48.180;11.400;2022-09-12T07:18:39;12.50;99.90
48007;DHT22;33771;48.180;11.400;2022-09-12T07:21:09;12.70;99.90
48007;DHT22;33771;48.180;11.400;2022-09-12T07:23:35;12.70;99.90
48007;DHT22;33771;48.180;11.400;2022-09-12T07:26:01;12.80;99.90
48007;DHT22;33771;48.180;11.400;2022-09-12T07:28:29;12.90;99.90
48007;DHT22;33771;48.180;11.400;2022-09-12T07:30:55;13.00;99.90
48007;DHT22;33771;48.180;11.400;2022-09-12T07:33:22;13.10;99.90
48007;DHT22;33771;48.180;11.400;2022-09-12T07:35:49;13.20;99.90
48007;DHT22;33771;48.180;11.400;2022-09-12T07:38:15;13.30;99.90
48007;DHT22;33771;48.180;11.400;2022-09-12T07:40:41;13.40;99.90
48007;DHT22;33771;48.180;11.400;2022-09-12T07:43:07;13.50;99.90
48007;DHT22;33771;48.180;11.400;2022-09-12T07:45:33;13.60;99.90
48007;DHT22;33771;48.180;11.400;2022-09-12T07:47:58;13.70;99.90
48007;DHT22;33771;48.180;11.400;2022-09-12T07:50:24;13.80;99.90
48007;DHT22;33771;48.180;11.400;2022-09-12T07:52:52;13.90;99.90
48007;DHT22;33771;48.180;11.400;2022-09-12T07:55:17;14.00;99.90
48007;DHT22;33771;48.180;11.400;2022-09-12T07:57:43;14.10;99.90
48007;DHT22;33771;48.180;11.400;2022-09-12T08:00:09;14.20;99.90
48007;DHT22;33771;48.180;11.400;2022-09-12T08:02:35;14.30;99.90
48007;DHT22;33771;48.180;11.400;2022-09-12T08:05:01;14.40;99.90
48007;DHT22;33771;48.180;11.400;2022-09-12T08:07:27;14.50;99.90
48007;DHT22;33771;48.180;11.400;2022-09-12T08:09:52;14.60;99.90
48007;DHT22;33771;48.180;11.400;2022-09-12T08:12:18;14.70;99.90
48007;DHT22;33771;48.180;11.400;2022-09-12T08:14:44;14.80;99.90
48007;DHT22;33771;48.180;11.400;2022-09-12T08:17:10;14.90;99.90
48007;DHT22;33771;48.180;11.400;2022-09-12T08:19:36;15.00;99.90
48007;DHT22;33771;48.180;11.400;2022-09-12T08:22:02;15.10;99.90
48007;DHT22;33771;48.180;11.400;2022-09-12T08:24:28;15.10;99.90
48007;DHT22;33771;48.180;11.400;2022-09-12T08:26:54;15.30;99.90
48007;DHT22;33771;48.180;11.400;2022-09-12T08:29:19;15.40;99.90
48007;DHT22;33771;48.180;11.400;2022-09-12T08:31:46;15.50;99.90
48007;DHT22;33771;48.180;11.400;2022-09-12T08:34:11;15.60;99.90
48007;DHT22;33771;48.180;11.400;2022-09-12T08:36:37;15.70;99.90
48007;DHT22;33771;48.180;11.400;2022-09-12T08:39:04;15.80;99.90
48007;DHT22;33771;48.180;11.400;2022-09-12T08:52:16;16.30;99.90
48007;DHT22;33771;48.180;11.400;2022-09-12T08:54:43;16.60;99.90
48007;DHT22;33771;48.180;11.400;2022-09-12T08:57:13;16.70;99.90
48007;DHT22;33771;48.180;11.400;2022-09-12T08:59:44;16.80;99.90
48007;DHT22;33771;48.180;11.400;2022-09-12T09:05:03;17.20;99.90
48007;DHT22;33771;48.180;11.400;2022-09-12T09:16:37;18.20;99.90
48007;DHT22;33771;48.180;11.400;2022-09-12T09:19:09;18.60;99.90
48007;DHT22;33771;48.180;11.400;2022-09-12T09:21:50;18.80;99.90
48007;DHT22;33771;48.180;11.400;2022-09-12T09:24:22;19.00;99.90
48007;DHT22;33771;48.180;11.400;2022-09-12T09:26:57;19.10;99.90
48007;DHT22;33771;48.180;11.400;2022-09-12T09:29:34;19.30;99.90
48007;DHT22;33771;48.180;11.400;2022-09-12T09:32:03;19.60;99.90
48007;DHT22;33771;48.180;11.400;2022-09-12T09:34:34;19.70;99.90
48007;DHT22;33771;48.180;11.400;2022-09-12T09:44:47;20.20;99.90
48007;DHT22;33771;48.180;11.400;2022-09-12T09:47:13;20.20;99.90
48007;DHT22;33771;48.180;11.400;2022-09-12T09:49:39;20.30;99.90
48007;DHT22;33771;48.180;11.400;2022-09-12T09:52:07;20.30;99.90
48007;DHT22;33771;48.180;11.400;2022-09-12T09:57:01;20.60;99.90
48007;DHT22;33771;48.180;11.400;2022-09-12T09:59:30;20.70;99.90
48007;DHT22;33771;48.180;11.400;2022-09-12T10:04:40;21.00;99.90
48007;DHT22;33771;48.180;11.400;2022-09-12T10:07:06;21.00;99.90
48007;DHT22;33771;48.180;11.400;2022-09-12T10:09:41;21.00;99.90
48007;DHT22;33771;48.180;11.400;2022-09-12T10:12:26;21.30;99.90
48007;DHT22;33771;48.180;11.400;2022-09-12T10:15:02;21.50;99.90
48007;DHT22;33771;48.180;11.400;2022-09-12T10:17:31;21.60;99.90
48007;DHT22;33771;48.180;11.400;2022-09-12T10:20:05;21.70;99.90
48007;DHT22;33771;48.180;11.400;2022-09-12T10:22:50;21.80;99.90
48007;DHT22;33771;48.180;11.400;2022-09-12T10:25:17;22.00;99.90
48007;DHT22;33771;48.180;11.400;2022-09-12T10:28:00;22.10;99.90
48007;DHT22;33771;48.180;11.400;2022-09-12T10:30:27;22.10;99.90
48007;DHT22;33771;48.180;11.400;2022-09-12T10:33:13;22.20;99.90
48007;DHT22;33771;48.180;11.400;2022-09-12T10:35:44;22.30;99.90
48007;DHT22;33771;48.180;11.400;2022-09-12T10:38:25;22.10;99.90
48007;DHT22;33771;48.180;11.400;2022-09-12T10:41:00;22.30;99.90
48007;DHT22;33771;48.180;11.400;2022-09-12T10:43:35;22.50;99.90
48007;DHT22;33771;48.180;11.400;2022-09-12T10:48:43;22.90;99.90
48007;DHT22;33771;48.180;11.400;2022-09-12T10:54:09;22.90;99.90
48007;DHT22;33771;48.180;11.400;2022-09-12T11:05:37;23.40;99.90
48007;DHT22;33771;48.180;11.400;2022-09-12T11:08:32;23.30;99.90
48007;DHT22;33771;48.180;11.400;2022-09-12T11:13:52;23.60;99.90
48007;DHT22;33771;48.180;11.400;2022-09-12T11:21:43;23.70;99.90
48007;DHT22;33771;48.180;11.400;2022-09-12T11:24:30;23.80;99.90
48007;DHT22;33771;48.180;11.400;2022-09-12T11:29:48;23.90;99.90
48007;DHT22;33771;48.180;11.400;2022-09-12T11:38:05;23.90;99.90
48007;DHT22;33771;48.180;11.400;2022-09-12T11:40:39;24.10;99.90
48007;DHT22;33771;48.180;11.400;2022-09-12T11:45:49;24.30;99.90
48007;DHT22;33771;48.180;11.400;2022-09-12T11:48:33;24.60;99.90
48007;DHT22;33771;48.180;11.400;2022-09-12T11:51:04;24.80;99.90
48007;DHT22;33771;48.180;11.400;2022-09-12T11:53:36;24.80;99.90
48007;DHT22;33771;48.180;11.400;2022-09-12T11:56:16;25.10;99.90
48007;DHT22;33771;48.180;11.400;2022-09-12T11:58:48;25.40;99.90
48007;DHT22;33771;48.180;11.400;2022-09-12T12:01:20;25.20;99.90
48007;DHT22;33771;48.180;11.400;2022-09-12T12:03:47;25.20;99.90
48007;DHT22;33771;48.180;11.400;2022-09-12T12:06:35;24.90;99.90
48007;DHT22;33771;48.180;11.400;2022-09-12T12:09:04;24.80;99.90
48007;DHT22;33771;48.180;11.400;2022-09-12T12:13:59;25.10;99.90
48007;DHT22;33771;48.180;11.400;2022-09-12T12:16:26;25.40;99.90
48007;DHT22;33771;48.180;11.400;2022-09-12T12:18:54;25.40;99.90
48007;DHT22;33771;48.180;11.400;2022-09-12T12:21:37;25.20;99.90
48007;DHT22;33771;48.180;11.400;2022-09-12T12:29:12;25.50;99.90
48007;DHT22;33771;48.180;11.400;2022-09-12T12:34:30;25.50;99.90
48007;DHT22;33771;48.180;11.400;2022-09-12T12:36:57;25.40;99.90
48007;DHT22;33771;48.180;11.400;2022-09-12T12:41:59;25.40;99.90
48007;DHT22;33771;48.180;11.400;2022-09-12T12:47:20;25.60;99.90
48007;DHT22;33771;48.180;11.400;2022-09-12T12:50:02;25.60;99.90
48007;DHT22;33771;48.180;11.400;2022-09-12T12:52:43;25.40;99.90
48007;DHT22;33771;48.180;11.400;2022-09-12T12:55:25;25.30;99.90
48007;DHT22;33771;48.180;11.400;2022-09-12T12:57:55;25.30;99.90
48007;DHT22;33771;48.180;11.400;2022-09-12T13:05:44;25.30;99.90
48007;DHT22;33771;48.180;11.400;2022-09-12T13:10:56;25.30;99.90
48007;DHT22;33771;48.180;11.400;2022-09-12T13:13:35;25.40;99.90
48007;DHT22;33771;48.180;11.400;2022-09-12T13:16:02;25.60;99.90
48007;DHT22;33771;48.180;11.400;2022-09-12T13:18:48;25.70;99.90
48007;DHT22;33771;48.180;11.400;2022-09-12T13:21:20;25.60;99.90
48007;DHT22;33771;48.180;11.400;2022-09-12T13:26:26;25.30;99.90
48007;DHT22;33771;48.180;11.400;2022-09-12T13:31:47;25.40;99.90
48007;DHT22;33771;48.180;11.400;2022-09-12T13:34:23;25.50;99.90
48007;DHT22;33771;48.180;11.400;2022-09-12T13:40:15;25.50;99.90
48007;DHT22;33771;48.180;11.400;2022-09-12T13:42:52;25.80;99.90
48007;DHT22;33771;48.180;11.400;2022-09-12T13:45:34;26.00;99.30
48007;DHT22;33771;48.180;11.400;2022-09-12T13:48:02;25.90;99.60
48007;DHT22;33771;48.180;11.400;2022-09-12T13:50:38;25.50;99.90
48007;DHT22;33771;48.180;11.400;2022-09-12T13:53:06;25.50;99.90
48007;DHT22;33771;48.180;11.400;2022-09-12T13:55:36;25.40;99.70
48007;DHT22;33771;48.180;11.400;2022-09-12T13:58:24;25.30;99.90
48007;DHT22;33771;48.180;11.400;2022-09-12T14:01:13;25.10;98.90
48007;DHT22;33771;48.180;11.400;2022-09-12T14:03:51;24.80;99.60
48007;DHT22;33771;48.180;11.400;2022-09-12T14:06:46;24.60;99.90
48007;DHT22;33771;48.180;11.400;2022-09-12T14:09:20;24.60;99.70
48007;DHT22;33771;48.180;11.400;2022-09-12T14:11:47;24.30;99.90
48007;DHT22;33771;48.180;11.400;2022-09-12T14:14:36;24.00;99.90
48007;DHT22;33771;48.180;11.400;2022-09-12T14:17:27;23.90;99.90
48007;DHT22;33771;48.180;11.400;2022-09-12T14:19:54;23.80;99.90
48007;DHT22;33771;48.180;11.400;2022-09-12T14:22:24;23.50;99.90
48007;DHT22;33771;48.180;11.400;2022-09-12T14:24:52;23.20;99.90
48007;DHT22;33771;48.180;11.400;2022-09-12T14:27:22;23.00;99.90
48007;DHT22;33771;48.180;11.400;2022-09-12T14:30:03;23.00;99.90
48007;DHT22;33771;48.180;11.400;2022-09-12T14:32:34;22.90;99.90
48007;DHT22;33771;48.180;11.400;2022-09-12T14:37:29;22.60;99.90
48007;DHT22;33771;48.180;11.400;2022-09-12T14:39:55;22.60;99.90
48007;DHT22;33771;48.180;11.400;2022-09-12T14:42:26;22.60;99.90
48007;DHT22;33771;48.180;11.400;2022-09-12T14:47:24;22.20;99.90
48007;DHT22;33771;48.180;11.400;2022-09-12T14:49:50;22.10;99.90
48007;DHT22;33771;48.180;11.400;2022-09-12T14:52:33;22.00;99.90
48007;DHT22;33771;48.180;11.400;2022-09-12T14:55:22;21.90;99.90
48007;DHT22;33771;48.180;11.400;2022-09-12T15:01:00;21.90;99.90
48007;DHT22;33771;48.180;11.400;2022-09-12T15:03:34;21.90;99.90
48007;DHT22;33771;48.180;11.400;2022-09-12T15:06:01;21.80;99.90
48007;DHT22;33771;48.180;11.400;2022-09-12T15:08:28;21.90;99.90
48007;DHT22;33771;48.180;11.400;2022-09-12T15:10:54;21.90;99.90
48007;DHT22;33771;48.180;11.400;2022-09-12T15:13:22;21.90;99.90
48007;DHT22;33771;48.180;11.400;2022-09-12T15:15:56;21.90;99.90
48007;DHT22;33771;48.180;11.400;2022-09-12T15:18:26;21.90;99.90
48007;DHT22;33771;48.180;11.400;2022-09-12T15:21:00;21.90;99.90
48007;DHT22;33771;48.180;11.400;2022-09-12T15:23:31;21.90;99.90
48007;DHT22;33771;48.180;11.400;2022-09-12T15:25:57;21.80;99.90
48007;DHT22;33771;48.180;11.400;2022-09-12T15:28:23;21.70;99.90
48007;DHT22;33771;48.180;11.400;2022-09-12T15:30:51;21.60;99.90
48007;DHT22;33771;48.180;11.400;2022-09-12T15:33:19;21.50;99.90
48007;DHT22;33771;48.180;11.400;2022-09-12T15:35:47;21.40;99.90
48007;DHT22;33771;48.180;11.400;2022-09-12T15:38:13;21.40;99.90
48007;DHT22;33771;48.180;11.400;2022-09-12T15:40:39;21.40;99.90
48007;DHT22;33771;48.180;11.400;2022-09-12T15:43:05;21.30;99.90
48007;DHT22;33771;48.180;11.400;2022-09-12T15:45:32;21.30;99.90
48007;DHT22;33771;48.180;11.400;2022-09-12T15:47:59;21.30;99.90
48007;DHT22;33771;48.180;11.400;2022-09-12T15:50:26;21.20;99.90
48007;DHT22;33771;48.180;11.400;2022-09-12T15:52:53;21.20;99.90
48007;DHT22;33771;48.180;11.400;2022-09-12T15:55:21;21.20;99.90
48007;DHT22;33771;48.180;11.400;2022-09-12T15:57:47;21.10;99.90
48007;DHT22;33771;48.180;11.400;2022-09-12T16:00:15;21.10;99.90
48007;DHT22;33771;48.180;11.400;2022-09-12T16:02:42;21.00;99.90
48007;DHT22;33771;48.180;11.400;2022-09-12T16:05:13;21.00;99.90
48007;DHT22;33771;48.180;11.400;2022-09-12T16:07:39;21.00;99.90
48007;DHT22;33771;48.180;11.400;2022-09-12T16:10:05;20.90;99.90
48007;DHT22;33771;48.180;11.400;2022-09-12T16:12:30;20.80;99.90
48007;DHT22;33771;48.180;11.400;2022-09-12T16:14:56;20.80;99.90
48007;DHT22;33771;48.180;11.400;2022-09-12T16:17:22;20.70;99.90
48007;DHT22;33771;48.180;11.400;2022-09-12T16:19:47;20.60;99.90
48007;DHT22;33771;48.180;11.400;2022-09-12T16:22:13;20.60;99.90
48007;DHT22;33771;48.180;11.400;2022-09-12T16:24:38;20.50;99.90
48007;DHT22;33771;48.180;11.400;2022-09-12T16:27:04;20.40;99.90
48007;DHT22;33771;48.180;11.400;2022-09-12T16:29:30;20.30;99.90
48007;DHT22;33771;48.180;11.400;2022-09-12T16:31:56;20.30;99.90
48007;DHT22;33771;48.180;11.400;2022-09-12T16:34:21;20.20;99.90
48007;DHT22;33771;48.180;11.400;2022-09-12T16:36:47;20.10;99.90
48007;DHT22;33771;48.180;11.400;2022-09-12T16:39:13;20.00;99.90
48007;DHT22;33771;48.180;11.400;2022-09-12T16:41:38;20.00;99.90
48007;DHT22;33771;48.180;11.400;2022-09-12T16:44:07;19.90;99.90
48007;DHT22;33771;48.180;11.400;2022-09-12T16:46:32;19.90;99.90
48007;DHT22;33771;48.180;11.400;2022-09-12T16:48:59;19.80;99.90
48007;DHT22;33771;48.180;11.400;2022-09-12T16:51:26;19.70;99.90
48007;DHT22;33771;48.180;11.400;2022-09-12T16:53:53;19.60;99.90
48007;DHT22;33771;48.180;11.400;2022-09-12T16:56:19;19.50;99.90
48007;DHT22;33771;48.180;11.400;2022-09-12T16:58:45;19.40;99.90
48007;DHT22;33771;48.180;11.400;2022-09-12T17:01:16;19.30;99.90
48007;DHT22;33771;48.180;11.400;2022-09-12T17:03:42;19.30;99.90
48007;DHT22;33771;48.180;11.400;2022-09-12T17:06:10;19.20;99.90
48007;DHT22;33771;48.180;11.400;2022-09-12T17:08:39;19.10;99.90
48007;DHT22;33771;48.180;11.400;2022-09-12T17:11:06;19.00;99.90
48007;DHT22;33771;48.180;11.400;2022-09-12T17:13:33;18.90;99.90
48007;DHT22;33771;48.180;11.400;2022-09-12T17:15:59;18.70;99.90
48007;DHT22;33771;48.180;11.400;2022-09-12T17:18:25;18.70;99.90
48007;DHT22;33771;48.180;11.400;2022-09-12T17:20:51;18.60;99.90
48007;DHT22;33771;48.180;11.400;2022-09-12T17:23:16;18.50;99.90
48007;DHT22;33771;48.180;11.400;2022-09-12T17:25:46;18.40;99.90
48007;DHT22;33771;48.180;11.400;2022-09-12T17:28:12;18.30;99.90
48007;DHT22;33771;48.180;11.400;2022-09-12T17:30:38;18.20;99.90
48007;DHT22;33771;48.180;11.400;2022-09-12T17:33:03;18.10;99.90
48007;DHT22;33771;48.180;11.400;2022-09-12T17:35:33;18.00;99.90
48007;DHT22;33771;48.180;11.400;2022-09-12T17:37:58;17.90;99.90
48007;DHT22;33771;48.180;11.400;2022-09-12T17:40:24;17.80;99.90
48007;DHT22;33771;48.180;11.400;2022-09-12T17:42:49;17.70;99.90
48007;DHT22;33771;48.180;11.400;2022-09-12T17:45:15;17.60;99.90
48007;DHT22;33771;48.180;11.400;2022-09-12T17:47:41;17.50;99.90
48007;DHT22;33771;48.180;11.400;2022-09-12T17:50:08;17.40;99.90
48007;DHT22;33771;48.180;11.400;2022-09-12T17:52:34;17.40;99.90
48007;DHT22;33771;48.180;11.400;2022-09-12T17:54:59;17.20;99.90
48007;DHT22;33771;48.180;11.400;2022-09-12T17:57:25;17.20;99.90
48007;DHT22;33771;48.180;11.400;2022-09-12T17:59:50;17.10;99.90
48007;DHT22;33771;48.180;11.400;2022-09-12T18:02:16;17.00;99.90